Record high temperature 39.4°C Record low temperature -14.6°C Record high gust 68.5 km/h Record high average 47.2 km/h Record daily rain 55.3 mm Record low windchill -17.5°C Record high barometer 1045.0 hPa Record low barometer 970.0 hPa
Daily high pressure 1023.0 hPa Daily low pressure 1012.0 hPa Daily low windchill -1.2°C Daily high heat index 12.2°C Daily high gust speed 20.5 kmh W Daily high average speed 14.8 kmh WNW

This page is updated from recent data collected by a WMR200 weather station Use the Reload or Refresh facility on your browser to retrieve the latest data.

Status report of weather station: Bienvenue sur la Station Météo de Godarville



Weather report/warning/Metars

Alexandroupoli Airport , Greece (LGAL) 40-51N 025-55E 3M
Mar 18, 2019 - 02:50 PM EDT / 2019.03.18 1850 UTC
Wind: from the WSW (250 degrees) at 8 MPH (7 KT):0
Visibility: greater than 7 mile(s):0
Temperature: 59 F (15 C)
Dew Point: 53 F (12 C)
Relative Humidity: 82%
Pressure (altimeter): 29.97 in. Hg (1015 hPa)
ob: LGAL 181850Z 25007KT CAVOK 15/12 Q1015
cycle: 19

Charleroi / Gosselies, Belgium (EBCI) 50-28N 004-27E 192M
Mar 18, 2019 - 02:50 PM EDT / 2019.03.18 1850 UTC
Wind: from the SW (230 degrees) at 5 MPH (4 KT):0
Visibility: greater than 7 mile(s):0
Sky conditions: partly cloudy
Temperature: 39 F (4 C)
Dew Point: 37 F (3 C)
Relative Humidity: 93%
Pressure (altimeter): 30.21 in. Hg (1023 hPa)
ob: EBCI 181850Z 23004KT 9999 SCT036 04/03 Q1023 NOSIG
cycle: 19

Bruxelles National, Belgium (EBBR) 50-54N 004-32E 58M
Mar 18, 2019 - 02:50 PM EDT / 2019.03.18 1850 UTC
Wind: from the NNW (330 degrees) at 5 MPH (4 KT):0
Visibility: greater than 7 mile(s):0
Temperature: 42 F (6 C)
Dew Point: 32 F (0 C)
Relative Humidity: 65%
Pressure (altimeter): 30.21 in. Hg (1023 hPa)
ob: EBBR 181850Z 33004KT CAVOK 06/M00 Q1023 NOSIG
cycle: 19

Koksijde, Belgium (EBFN) 51-05N 002-39E 9M
Mar 18, 2019 - 02:55 PM EDT / 2019.03.18 1855 UTC
Wind: from the W (270 degrees) at 8 MPH (7 KT):0
Visibility: greater than 7 mile(s):0
Temperature: 44 F (7 C)
Dew Point: 39 F (4 C)
Relative Humidity: 81%
Pressure (altimeter): 30.21 in. Hg (1023 hPa)
ob: EBFN 181855Z AUTO 27007KT 9999 NCD 07/04 Q1023 BLU
cycle: 19

Poznan, Poland (EPPO) 52-25N 016-50E 92M
Mar 18, 2019 - 03:00 PM EDT / 2019.03.18 1900 UTC
Wind: from the SSW (210 degrees) at 6 MPH (5 KT):0
Visibility: greater than 7 mile(s):0
Temperature: 37 F (3 C)
Dew Point: 33 F (1 C)
Relative Humidity: 86%
Pressure (altimeter): 29.91 in. Hg (1013 hPa)
ob: EPPO 181900Z 21005KT CAVOK 03/01 Q1013 
cycle: 19



Coucher du Soleil:
18:50:23

Lever de Lune:
14:04:26 17/03/19

Coucher de Lune:
05:01:36 17/03/19

Premier Quartier 14 mars 2019
Pleine Lune 21 mars 2019
Dernier Quartier 28 mars 2019
Nouvelle Lune 5 avril 2019
Âge de lune : 11 jours,4 heures,36 minutes,86%
Les heures du jour possible étaient aujourd’hui 11:57